Time;durP1;ratioP1;P1;durP2;ratioP2;P2;SDS_P1;SDS_P2;PMS_P1;PMS_P2;Temp;Humidity;BMP_temperature;BMP_pressure;BME280_temperature;BME280_humidity;BME280_pressure;Samples;Min_cycle;Max_cycle;Signal;HPM_P1;HPM_P2
2022/09/17 00:01:42;;;;;;;;;;;20.30;57.90;;;;;;4997630;28;20361;-73
2022/09/17 00:04:08;;;;;;;;;;;20.30;57.80;;;;;;5009043;28;20343;-73
2022/09/17 00:06:34;;;;;;;;;;;20.30;57.80;;;;;;4987769;28;20016;-73
2022/09/17 00:08:59;;;;;;;;;;;20.30;57.80;;;;;;4989286;28;20289;-73
2022/09/17 00:11:26;;;;;;;;;;;20.30;57.80;;;;;;5015684;28;19926;-73
2022/09/17 00:13:52;;;;;;;;;;;20.20;57.70;;;;;;5011190;28;20944;-73
2022/09/17 00:16:21;;;;;;;;;;;20.20;57.90;;;;;;5009965;28;20009;-73
2022/09/17 00:18:47;;;;;;;;;;;20.20;57.80;;;;;;4992859;28;20289;-73
2022/09/17 00:21:16;;;;;;;;;;;20.20;57.70;;;;;;5012870;28;19925;-72
2022/09/17 00:23:41;;;;;;;;;;;20.20;58.00;;;;;;5013587;28;19918;-72
2022/09/17 00:26:07;;;;;;;;;;;20.20;57.70;;;;;;4991780;28;19918;-73
2022/09/17 00:28:32;;;;;;;;;;;20.20;57.70;;;;;;5011409;28;20339;-73
2022/09/17 00:30:57;;;;;;;;;;;20.20;57.70;;;;;;5010601;28;19975;-73
2022/09/17 00:33:23;;;;;;;;;;;20.20;57.70;;;;;;5011808;28;19913;-73
2022/09/17 00:35:58;;;;;;;;;;;20.20;57.80;;;;;;5011864;28;19913;-73
2022/09/17 00:38:24;;;;;;;;;;;20.20;57.80;;;;;;5010673;28;20389;-73
2022/09/17 00:40:49;;;;;;;;;;;20.20;57.80;;;;;;5010015;28;19914;-73
2022/09/17 00:43:31;;;;;;;;;;;20.20;57.80;;;;;;5014151;28;19924;-73
2022/09/17 00:45:56;;;;;;;;;;;20.20;57.70;;;;;;5012775;28;19981;-73
2022/09/17 00:48:22;;;;;;;;;;;20.20;57.70;;;;;;5013394;28;20008;-73
2022/09/17 00:50:47;;;;;;;;;;;20.20;57.80;;;;;;5010232;28;19921;-73
2022/09/17 00:53:13;;;;;;;;;;;20.20;57.90;;;;;;4995707;28;19914;-74
2022/09/17 00:55:40;;;;;;;;;;;20.10;57.40;;;;;;4997819;28;19925;-73
2022/09/17 00:58:07;;;;;;;;;;;20.10;57.80;;;;;;4991383;28;19917;-72
2022/09/17 01:00:33;;;;;;;;;;;20.10;57.80;;;;;;5009165;28;19913;-73
2022/09/17 01:02:58;;;;;;;;;;;20.20;57.80;;;;;;4999349;28;20285;-72
2022/09/17 01:05:32;;;;;;;;;;;20.10;57.70;;;;;;5012238;28;19965;-73
2022/09/17 01:08:04;;;;;;;;;;;20.20;57.80;;;;;;5011046;28;20461;-72
2022/09/17 01:10:36;;;;;;;;;;;20.10;57.70;;;;;;4995816;28;19968;-73
2022/09/17 01:13:07;;;;;;;;;;;20.20;57.70;;;;;;5012188;28;19972;-72
2022/09/17 01:15:54;;;;;;;;;;;20.20;57.70;;;;;;5011873;28;20373;-73
2022/09/17 01:18:26;;;;;;;;;;;20.10;57.70;;;;;;5008023;28;19914;-73
2022/09/17 01:20:57;;;;;;;;;;;20.10;57.70;;;;;;5012045;28;19924;-73
2022/09/17 01:23:45;;;;;;;;;;;20.10;57.80;;;;;;5011351;28;19968;-72
2022/09/17 01:26:20;;;;;;;;;;;20.10;57.70;;;;;;4988154;28;19921;-73
2022/09/17 01:28:56;;;;;;;;;;;20.10;57.70;;;;;;5010951;28;19927;-71
2022/09/17 01:31:24;;;;;;;;;;;20.10;57.70;;;;;;5006446;28;20373;-73
2022/09/17 01:33:51;;;;;;;;;;;20.10;57.80;;;;;;5012715;28;20400;-72
2022/09/17 01:36:21;;;;;;;;;;;20.10;57.70;;;;;;5011587;28;19991;-72
2022/09/17 01:39:23;;;;;;;;;;;20.10;57.80;;;;;;5009624;28;19920;-73
2022/09/17 01:42:03;;;;;;;;;;;20.10;57.70;;;;;;4975353;28;20013;-73
2022/09/17 01:44:32;;;;;;;;;;;20.10;57.70;;;;;;4992197;28;19997;-73
2022/09/17 01:47:01;;;;;;;;;;;20.10;57.70;;;;;;4997481;28;19921;-73
2022/09/17 01:49:26;;;;;;;;;;;20.10;57.70;;;;;;5013815;28;19913;-73
2022/09/17 01:51:53;;;;;;;;;;;20.10;57.70;;;;;;5011098;28;20428;-73
2022/09/17 01:54:22;;;;;;;;;;;20.10;57.70;;;;;;5008871;28;20378;-73
2022/09/17 01:56:50;;;;;;;;;;;20.10;57.60;;;;;;5012659;28;19918;-73
2022/09/17 01:59:17;;;;;;;;;;;20.10;57.60;;;;;;5012554;28;20382;-73
2022/09/17 02:01:43;;;;;;;;;;;20.10;57.60;;;;;;5009004;28;19921;-73
2022/09/17 02:04:10;;;;;;;;;;;20.10;58.20;;;;;;4996890;28;19930;-74
2022/09/17 02:06:36;;;;;;;;;;;20.10;57.60;;;;;;5011365;28;20440;-73
2022/09/17 02:09:07;;;;;;;;;;;20.00;57.60;;;;;;5005862;28;19913;-73
2022/09/17 02:11:36;;;;;;;;;;;20.10;57.60;;;;;;5012972;28;19959;-72
2022/09/17 02:14:02;;;;;;;;;;;20.10;57.60;;;;;;5011402;28;20429;-73
2022/09/17 02:16:28;;;;;;;;;;;20.00;57.50;;;;;;4994476;28;19917;-72
2022/09/17 02:18:59;;;;;;;;;;;20.10;57.60;;;;;;5007900;28;19936;-73
2022/09/17 02:21:25;;;;;;;;;;;20.10;57.50;;;;;;5011009;28;19918;-72
2022/09/17 02:24:05;;;;;;;;;;;20.10;57.50;;;;;;5011179;28;19928;-72
2022/09/17 02:26:31;;;;;;;;;;;20.00;57.40;;;;;;5013358;28;19936;-73
2022/09/17 02:28:58;;;;;;;;;;;20.00;57.60;;;;;;5012182;28;19913;-74
2022/09/17 02:31:23;;;;;;;;;;;20.00;57.60;;;;;;5011665;28;19914;-74
2022/09/17 02:33:50;;;;;;;;;;;20.00;57.60;;;;;;5009498;28;19966;-72
2022/09/17 02:36:16;;;;;;;;;;;20.00;57.60;;;;;;4979302;28;19918;-73
2022/09/17 02:38:42;;;;;;;;;;;20.00;57.60;;;;;;5005878;28;19921;-72
2022/09/17 02:41:08;;;;;;;;;;;20.00;57.60;;;;;;5013204;28;19910;-73
2022/09/17 02:43:52;;;;;;;;;;;19.90;57.50;;;;;;5011992;28;20019;-73
2022/09/17 02:46:24;;;;;;;;;;;20.00;57.60;;;;;;5012828;28;19913;-72
2022/09/17 02:48:54;;;;;;;;;;;19.90;57.60;;;;;;5011627;28;19933;-72
2022/09/17 02:51:22;;;;;;;;;;;20.00;57.60;;;;;;5007590;28;20636;-72
2022/09/17 02:54:00;;;;;;;;;;;19.90;57.50;;;;;;5003946;28;20220;-72
2022/09/17 02:56:29;;;;;;;;;;;20.00;57.70;;;;;;5005576;28;19999;-73
2022/09/17 02:59:02;;;;;;;;;;;19.90;57.70;;;;;;5015861;28;20374;-72
2022/09/17 03:01:32;;;;;;;;;;;19.90;57.80;;;;;;5011211;28;19909;-73
2022/09/17 03:03:58;;;;;;;;;;;19.90;57.70;;;;;;5010001;28;19976;-72
2022/09/17 03:06:26;;;;;;;;;;;19.90;57.80;;;;;;5003404;28;21270;-73
2022/09/17 03:08:51;;;;;;;;;;;19.90;57.70;;;;;;5014065;28;20012;-74
2022/09/17 03:11:17;;;;;;;;;;;20.00;57.70;;;;;;5018412;28;19913;-73
2022/09/17 03:13:42;;;;;;;;;;;19.90;57.60;;;;;;5005026;28;20012;-73
2022/09/17 03:16:07;;;;;;;;;;;19.90;57.60;;;;;;5002299;28;19917;-73
2022/09/17 03:18:33;;;;;;;;;;;19.90;57.70;;;;;;5012044;28;19913;-72
2022/09/17 03:20:58;;;;;;;;;;;19.90;57.60;;;;;;5010695;28;19917;-74
2022/09/17 03:23:25;;;;;;;;;;;19.90;57.60;;;;;;5011584;28;19944;-72
2022/09/17 03:25:50;;;;;;;;;;;19.90;57.60;;;;;;5011090;28;19923;-73
2022/09/17 03:28:16;;;;;;;;;;;19.80;57.70;;;;;;5014965;28;19917;-73
2022/09/17 03:30:44;;;;;;;;;;;19.80;57.70;;;;;;5012392;28;19917;-73
2022/09/17 03:33:10;;;;;;;;;;;19.80;57.70;;;;;;5009526;28;19918;-72
2022/09/17 03:35:36;;;;;;;;;;;19.90;57.70;;;;;;5016038;28;19924;-72
2022/09/17 03:38:01;;;;;;;;;;;19.90;57.70;;;;;;5015777;28;19929;-73
2022/09/17 03:40:27;;;;;;;;;;;19.90;57.80;;;;;;5010351;28;20203;-72
2022/09/17 03:42:52;;;;;;;;;;;19.90;57.70;;;;;;5014223;28;19945;-72
2022/09/17 03:45:17;;;;;;;;;;;19.80;57.70;;;;;;4996708;28;19924;-73
2022/09/17 03:47:43;;;;;;;;;;;19.80;57.80;;;;;;5014151;28;19923;-72
2022/09/17 03:50:08;;;;;;;;;;;19.80;57.70;;;;;;5002336;28;19913;-73
2022/09/17 03:52:34;;;;;;;;;;;19.80;57.70;;;;;;5014718;28;19976;-73
2022/09/17 03:54:59;;;;;;;;;;;19.80;57.70;;;;;;5016055;28;19921;-73
2022/09/17 03:57:25;;;;;;;;;;;19.80;57.70;;;;;;5026655;28;19928;-73
2022/09/17 03:59:50;;;;;;;;;;;19.80;57.80;;;;;;5014906;28;20051;-74
2022/09/17 04:02:16;;;;;;;;;;;19.80;57.80;;;;;;5014122;28;19920;-72
2022/09/17 04:04:41;;;;;;;;;;;19.80;57.80;;;;;;5003860;28;19928;-73
2022/09/17 04:07:07;;;;;;;;;;;19.80;57.80;;;;;;5014325;28;19918;-72
2022/09/17 04:09:32;;;;;;;;;;;19.80;57.80;;;;;;5015399;28;20392;-74
2022/09/17 04:11:58;;;;;;;;;;;19.80;57.80;;;;;;5014769;28;20289;-73
2022/09/17 04:14:23;;;;;;;;;;;19.80;57.80;;;;;;5015186;28;19928;-73
2022/09/17 04:16:48;;;;;;;;;;;19.80;57.80;;;;;;4986065;28;19980;-73
2022/09/17 04:19:14;;;;;;;;;;;19.80;57.70;;;;;;4993188;28;20245;-73
2022/09/17 04:21:39;;;;;;;;;;;19.80;57.70;;;;;;5013704;28;20007;-74
2022/09/17 04:24:05;;;;;;;;;;;19.80;57.70;;;;;;5015785;28;20293;-73
2022/09/17 04:26:30;;;;;;;;;;;19.80;57.60;;;;;;5015183;28;19964;-72
2022/09/17 04:28:56;;;;;;;;;;;19.80;57.70;;;;;;4998580;28;19983;-73
2022/09/17 04:31:23;;;;;;;;;;;19.80;57.70;;;;;;5009503;28;19968;-73
2022/09/17 04:33:49;;;;;;;;;;;19.80;57.60;;;;;;5012601;28;19909;-73
2022/09/17 04:36:15;;;;;;;;;;;19.80;57.60;;;;;;5007352;28;19917;-74
2022/09/17 04:38:40;;;;;;;;;;;19.80;57.60;;;;;;5014511;28;19918;-73
2022/09/17 04:41:06;;;;;;;;;;;19.80;57.50;;;;;;5015085;28;19987;-73
2022/09/17 04:43:31;;;;;;;;;;;19.80;57.60;;;;;;5014436;28;19917;-73
2022/09/17 04:45:57;;;;;;;;;;;19.80;57.60;;;;;;5013899;28;19928;-73
2022/09/17 04:48:22;;;;;;;;;;;19.80;57.50;;;;;;5015417;28;20381;-73
2022/09/17 04:50:48;;;;;;;;;;;19.70;57.50;;;;;;5012013;28;19913;-74
2022/09/17 04:53:13;;;;;;;;;;;19.70;57.40;;;;;;4996727;28;19923;-74
2022/09/17 04:55:38;;;;;;;;;;;19.80;57.50;;;;;;5010195;28;20366;-72
2022/09/17 04:58:04;;;;;;;;;;;19.80;57.50;;;;;;5010341;28;19921;-74
2022/09/17 05:00:29;;;;;;;;;;;19.70;57.40;;;;;;5014144;28;19913;-74
2022/09/17 05:02:55;;;;;;;;;;;19.80;57.40;;;;;;5014265;28;19918;-73
2022/09/17 05:05:21;;;;;;;;;;;19.80;57.40;;;;;;5013002;28;19932;-74
2022/09/17 05:07:46;;;;;;;;;;;19.70;57.40;;;;;;5011726;28;20265;-74
2022/09/17 05:10:12;;;;;;;;;;;19.70;57.40;;;;;;5027136;28;19914;-73
2022/09/17 05:12:37;;;;;;;;;;;19.70;57.30;;;;;;5007294;28;19913;-74
2022/09/17 05:15:03;;;;;;;;;;;19.70;57.60;;;;;;5000831;28;19977;-73
2022/09/17 05:17:28;;;;;;;;;;;19.80;57.40;;;;;;5013459;28;20361;-73
2022/09/17 05:19:54;;;;;;;;;;;19.80;57.40;;;;;;5015470;28;19914;-73
2022/09/17 05:22:19;;;;;;;;;;;19.70;57.30;;;;;;5007309;28;19913;-74
2022/09/17 05:24:45;;;;;;;;;;;19.70;57.30;;;;;;5011950;28;20437;-73
2022/09/17 05:27:10;;;;;;;;;;;19.70;57.30;;;;;;5012631;28;19929;-74
2022/09/17 05:29:36;;;;;;;;;;;19.70;57.40;;;;;;5014954;28;19917;-73
2022/09/17 05:32:04;;;;;;;;;;;19.70;57.40;;;;;;5014876;28;19921;-74
2022/09/17 05:34:30;;;;;;;;;;;19.70;57.40;;;;;;5015171;28;19921;-73
2022/09/17 05:36:55;;;;;;;;;;;19.70;57.40;;;;;;5022900;28;19921;-73
2022/09/17 05:39:24;;;;;;;;;;;19.70;57.40;;;;;;5008306;28;19918;-74
2022/09/17 05:41:52;;;;;;;;;;;19.70;57.30;;;;;;5013548;28;19972;-74
2022/09/17 05:44:18;;;;;;;;;;;19.70;57.20;;;;;;4997281;28;19914;-74
2022/09/17 05:46:44;;;;;;;;;;;19.70;57.30;;;;;;4995632;28;19919;-74
2022/09/17 05:49:09;;;;;;;;;;;19.70;57.30;;;;;;5013652;28;19941;-74
2022/09/17 05:51:35;;;;;;;;;;;19.70;57.20;;;;;;5012806;28;20011;-73
2022/09/17 05:54:00;;;;;;;;;;;19.70;57.30;;;;;;4995086;28;19917;-73
2022/09/17 05:56:26;;;;;;;;;;;19.70;57.30;;;;;;5009158;28;19917;-73
2022/09/17 05:58:55;;;;;;;;;;;19.70;57.30;;;;;;4996942;28;19961;-74
2022/09/17 06:01:21;;;;;;;;;;;19.60;57.30;;;;;;4985703;28;20013;-73
2022/09/17 06:03:46;;;;;;;;;;;19.60;57.30;;;;;;5003632;28;19976;-73
2022/09/17 06:06:12;;;;;;;;;;;19.70;57.40;;;;;;5013709;28;20013;-73
2022/09/17 06:08:37;;;;;;;;;;;19.70;57.40;;;;;;5009874;28;19960;-74
2022/09/17 06:11:04;;;;;;;;;;;19.60;57.40;;;;;;5009146;28;19920;-73
2022/09/17 06:13:29;;;;;;;;;;;19.60;57.40;;;;;;5009101;28;19913;-73
2022/09/17 06:15:55;;;;;;;;;;;19.70;57.40;;;;;;5009952;28;20014;-73
2022/09/17 06:18:20;;;;;;;;;;;19.60;57.40;;;;;;5011091;28;20181;-74
2022/09/17 06:20:59;;;;;;;;;;;19.60;57.40;;;;;;5013281;28;19917;-74
2022/09/17 06:23:24;;;;;;;;;;;19.60;57.30;;;;;;5010558;28;20335;-74
2022/09/17 06:25:59;;;;;;;;;;;19.60;57.30;;;;;;5011116;28;19955;-74
2022/09/17 06:28:25;;;;;;;;;;;19.60;57.30;;;;;;5008243;28;19918;-74
2022/09/17 06:30:54;;;;;;;;;;;19.60;57.30;;;;;;5006305;28;19982;-74
2022/09/17 06:33:20;;;;;;;;;;;19.60;57.40;;;;;;4992772;28;19917;-74
2022/09/17 06:35:46;;;;;;;;;;;19.60;57.40;;;;;;4989973;28;19975;-74
2022/09/17 06:38:11;;;;;;;;;;;19.60;57.30;;;;;;5013147;28;19918;-75
2022/09/17 06:40:37;;;;;;;;;;;19.60;57.30;;;;;;5003531;28;20004;-73
2022/09/17 06:43:02;;;;;;;;;;;19.60;57.30;;;;;;5015546;28;20424;-74
2022/09/17 06:45:28;;;;;;;;;;;19.60;57.30;;;;;;4999107;28;19913;-74
2022/09/17 06:47:53;;;;;;;;;;;19.60;57.30;;;;;;4989250;28;19918;-74
2022/09/17 06:50:19;;;;;;;;;;;19.60;57.90;;;;;;4996316;28;19909;-73
2022/09/17 06:52:53;;;;;;;;;;;19.60;57.20;;;;;;5013480;28;19920;-74
2022/09/17 06:55:19;;;;;;;;;;;19.60;57.20;;;;;;5013529;28;19914;-73
2022/09/17 06:57:44;;;;;;;;;;;19.60;57.20;;;;;;5019779;28;19920;-73
2022/09/17 07:00:11;;;;;;;;;;;19.60;57.10;;;;;;5011914;28;19918;-74
2022/09/17 07:02:36;;;;;;;;;;;19.60;57.10;;;;;;5014576;28;19918;-72
2022/09/17 07:05:02;;;;;;;;;;;19.60;57.10;;;;;;5011618;28;20423;-74
2022/09/17 07:07:27;;;;;;;;;;;19.60;57.20;;;;;;5003843;28;19948;-73
2022/09/17 07:09:53;;;;;;;;;;;19.60;57.20;;;;;;5006385;28;20000;-73
2022/09/17 07:12:19;;;;;;;;;;;19.60;57.10;;;;;;5004238;28;19941;-73
2022/09/17 07:14:45;;;;;;;;;;;19.60;57.10;;;;;;5003129;28;20333;-73
2022/09/17 07:17:11;;;;;;;;;;;19.70;57.00;;;;;;5009711;28;20263;-73
2022/09/17 07:19:36;;;;;;;;;;;19.70;57.00;;;;;;5011026;28;19925;-74
2022/09/17 07:22:02;;;;;;;;;;;19.70;57.00;;;;;;5001908;28;19926;-74
2022/09/17 07:24:27;;;;;;;;;;;19.60;56.90;;;;;;5000805;28;19909;-74
2022/09/17 07:26:53;;;;;;;;;;;19.70;57.00;;;;;;5015599;28;19914;-74
2022/09/17 07:29:19;;;;;;;;;;;19.70;57.00;;;;;;5014611;28;19917;-74
2022/09/17 07:31:44;;;;;;;;;;;19.70;56.90;;;;;;5003117;28;19932;-74
2022/09/17 07:34:10;;;;;;;;;;;19.70;56.80;;;;;;5014757;28;20009;-74
2022/09/17 07:36:35;;;;;;;;;;;19.70;56.80;;;;;;5002488;28;19925;-73
2022/09/17 07:39:01;;;;;;;;;;;19.70;56.90;;;;;;5006048;28;19969;-74
2022/09/17 07:41:26;;;;;;;;;;;19.70;56.90;;;;;;5006184;28;19917;-73
2022/09/17 07:43:53;;;;;;;;;;;19.70;56.80;;;;;;5007956;28;19914;-73
2022/09/17 07:46:18;;;;;;;;;;;19.70;56.80;;;;;;4988070;28;19921;-73
2022/09/17 07:48:45;;;;;;;;;;;19.70;56.80;;;;;;5006938;28;19917;-74
2022/09/17 07:51:14;;;;;;;;;;;19.70;56.80;;;;;;5004020;28;20008;-73
2022/09/17 07:53:40;;;;;;;;;;;19.70;56.80;;;;;;5008550;28;19917;-73
2022/09/17 07:56:06;;;;;;;;;;;19.70;56.70;;;;;;5007117;28;19940;-72
2022/09/17 07:58:32;;;;;;;;;;;19.70;56.80;;;;;;4990348;28;19972;-72
2022/09/17 08:01:02;;;;;;;;;;;19.70;56.80;;;;;;4988210;28;20377;-73
2022/09/17 08:03:27;;;;;;;;;;;19.80;56.90;;;;;;5012352;28;19921;-72
2022/09/17 08:05:53;;;;;;;;;;;19.80;56.60;;;;;;5014191;28;19921;-72
2022/09/17 08:08:19;;;;;;;;;;;19.90;56.50;;;;;;5012515;28;19971;-72
2022/09/17 08:10:44;;;;;;;;;;;19.90;56.40;;;;;;5013658;28;19960;-72
2022/09/17 08:13:09;;;;;;;;;;;20.00;56.40;;;;;;5009995;28;19918;-73
2022/09/17 08:15:35;;;;;;;;;;;20.10;56.40;;;;;;4995453;28;19981;-72
2022/09/17 08:18:00;;;;;;;;;;;20.20;56.30;;;;;;5003420;28;20297;-72
2022/09/17 08:20:26;;;;;;;;;;;20.30;56.10;;;;;;5011066;28;20258;-71
2022/09/17 08:22:58;;;;;;;;;;;20.40;56.00;;;;;;5015600;28;19945;-72
2022/09/17 08:25:24;;;;;;;;;;;20.50;55.80;;;;;;5016498;28;19914;-73
2022/09/17 08:27:52;;;;;;;;;;;20.60;55.80;;;;;;4997954;28;20366;-73
2022/09/17 08:30:17;;;;;;;;;;;20.70;55.60;;;;;;5000985;28;19917;-72
2022/09/17 08:32:43;;;;;;;;;;;20.70;55.60;;;;;;5016556;28;20012;-72
2022/09/17 08:35:10;;;;;;;;;;;20.80;55.70;;;;;;5016138;28;19917;-73
2022/09/17 08:37:35;;;;;;;;;;;20.90;55.70;;;;;;4992831;28;19917;-73
2022/09/17 08:40:01;;;;;;;;;;;20.90;55.40;;;;;;4997096;28;19987;-74
2022/09/17 08:42:30;;;;;;;;;;;21.00;55.40;;;;;;5001193;28;19921;-73
2022/09/17 08:44:55;;;;;;;;;;;21.00;55.10;;;;;;5008968;28;19913;-73
2022/09/17 08:47:29;;;;;;;;;;;21.10;55.10;;;;;;5005084;28;20701;-72
2022/09/17 08:49:55;;;;;;;;;;;21.20;55.10;;;;;;5001002;28;19921;-74
2022/09/17 08:52:26;;;;;;;;;;;21.20;54.90;;;;;;5007717;28;19917;-73
2022/09/17 08:55:10;;;;;;;;;;;21.30;54.90;;;;;;5002569;28;19918;-73
2022/09/17 08:57:42;;;;;;;;;;;21.30;54.80;;;;;;5005121;28;19914;-72
2022/09/17 09:00:15;;;;;;;;;;;21.40;54.80;;;;;;4996936;28;20278;-73
2022/09/17 09:03:04;;;;;;;;;;;21.40;54.70;;;;;;5006138;28;20409;-72
2022/09/17 09:05:43;;;;;;;;;;;21.40;54.60;;;;;;4987640;28;19976;-73
2022/09/17 09:08:13;;;;;;;;;;;21.40;54.60;;;;;;5004588;28;19948;-73
2022/09/17 09:10:43;;;;;;;;;;;21.50;54.70;;;;;;5008180;28;20377;-72
2022/09/17 09:13:09;;;;;;;;;;;21.50;54.60;;;;;;5005148;28;20382;-72
2022/09/17 09:15:35;;;;;;;;;;;21.50;54.60;;;;;;5002991;28;19985;-72
2022/09/17 09:18:08;;;;;;;;;;;21.50;54.60;;;;;;5013644;28;20569;-73
2022/09/17 09:20:54;;;;;;;;;;;21.50;54.70;;;;;;5012868;28;20004;-73
2022/09/17 09:23:41;;;;;;;;;;;21.50;54.60;;;;;;5012183;28;19959;-74
2022/09/17 09:26:13;;;;;;;;;;;21.50;55.20;;;;;;5011955;28;19910;-74
2022/09/17 09:28:41;;;;;;;;;;;21.40;54.50;;;;;;4995942;28;19969;-75
2022/09/17 09:31:22;;;;;;;;;;;21.40;54.50;;;;;;5013766;28;20281;-73
2022/09/17 09:33:48;;;;;;;;;;;21.50;54.60;;;;;;5017403;28;20369;-74
2022/09/17 09:36:14;;;;;;;;;;;21.50;54.50;;;;;;5014956;28;19972;-74
2022/09/17 09:38:42;;;;;;;;;;;21.40;54.30;;;;;;5011646;28;19945;-75
2022/09/17 09:41:08;;;;;;;;;;;21.40;54.40;;;;;;5010773;28;19957;-74
2022/09/17 09:43:35;;;;;;;;;;;21.40;54.30;;;;;;5012284;28;19960;-75
2022/09/17 09:46:08;;;;;;;;;;;21.40;54.30;;;;;;5007123;28;20004;-74
2022/09/17 09:48:48;;;;;;;;;;;21.50;54.20;;;;;;5011077;28;19917;-73
2022/09/17 09:51:32;;;;;;;;;;;21.50;54.30;;;;;;5009933;28;19976;-74
2022/09/17 09:54:12;;;;;;;;;;;21.50;54.20;;;;;;5012771;28;20354;-74
2022/09/17 09:56:57;;;;;;;;;;;21.50;54.20;;;;;;4987130;28;19914;-75
2022/09/17 09:59:23;;;;;;;;;;;21.50;54.10;;;;;;5010284;28;19914;-75
2022/09/17 10:01:48;;;;;;;;;;;21.50;54.20;;;;;;5013224;28;19913;-74
2022/09/17 10:04:15;;;;;;;;;;;21.50;54.20;;;;;;5008684;28;19973;-74
2022/09/17 10:06:40;;;;;;;;;;;21.50;54.20;;;;;;5011217;28;19922;-74
2022/09/17 10:09:06;;;;;;;;;;;21.50;54.20;;;;;;4995359;28;19917;-74
2022/09/17 10:11:32;;;;;;;;;;;21.50;54.20;;;;;;5012485;28;19917;-75
2022/09/17 10:14:16;;;;;;;;;;;21.50;53.90;;;;;;5002850;28;20345;-74
2022/09/17 10:16:42;;;;;;;;;;;21.60;54.00;;;;;;5010685;28;20016;-74
2022/09/17 10:19:07;;;;;;;;;;;21.60;53.90;;;;;;5011815;28;20000;-75
2022/09/17 10:21:39;;;;;;;;;;;21.60;53.90;;;;;;5011837;28;19920;-74
2022/09/17 10:24:11;;;;;;;;;;;21.70;53.80;;;;;;5003470;28;19920;-74
2022/09/17 10:26:36;;;;;;;;;;;21.70;54.30;;;;;;4997853;28;19917;-74
2022/09/17 10:29:05;;;;;;;;;;;21.70;53.40;;;;;;5013534;28;20420;-74
2022/09/17 10:31:44;;;;;;;;;;;21.80;53.50;;;;;;5012261;28;20385;-74
2022/09/17 10:34:10;;;;;;;;;;;21.70;53.40;;;;;;5010920;28;19972;-73
2022/09/17 10:36:40;;;;;;;;;;;21.80;53.50;;;;;;5010051;28;19918;-73
2022/09/17 10:39:18;;;;;;;;;;;21.80;53.40;;;;;;5001894;28;19921;-73
2022/09/17 10:41:53;;;;;;;;;;;21.80;53.40;;;;;;5017042;28;19921;-74
2022/09/17 10:44:19;;;;;;;;;;;21.80;53.20;;;;;;5004564;28;19918;-74
2022/09/17 10:46:44;;;;;;;;;;;21.80;53.10;;;;;;5015992;28;20714;-74
2022/09/17 10:49:24;;;;;;;;;;;21.80;53.10;;;;;;5012794;28;20010;-74
2022/09/17 10:51:49;;;;;;;;;;;21.80;53.10;;;;;;5012388;28;19913;-73
2022/09/17 10:54:14;;;;;;;;;;;21.80;53.00;;;;;;5000580;28;19921;-74
2022/09/17 10:56:41;;;;;;;;;;;21.80;53.10;;;;;;5015677;28;19948;-75
2022/09/17 10:59:26;;;;;;;;;;;21.70;53.00;;;;;;4998480;28;20008;-74
2022/09/17 11:01:58;;;;;;;;;;;21.70;53.10;;;;;;5001191;28;20406;-74
2022/09/17 11:04:33;;;;;;;;;;;21.70;53.00;;;;;;5016607;28;19968;-75
2022/09/17 11:07:14;;;;;;;;;;;21.80;52.90;;;;;;5015483;28;19921;-74
2022/09/17 11:09:53;;;;;;;;;;;21.80;52.80;;;;;;5013669;28;19922;-75
2022/09/17 11:12:22;;;;;;;;;;;21.80;52.80;;;;;;5015350;28;19949;-74
2022/09/17 11:14:55;;;;;;;;;;;21.80;52.80;;;;;;5010149;28;20294;-75
2022/09/17 11:17:42;;;;;;;;;;;21.80;52.70;;;;;;5004465;28;19924;-74
2022/09/17 11:20:26;;;;;;;;;;;21.90;52.70;;;;;;4997381;28;19936;-75
2022/09/17 11:22:52;;;;;;;;;;;21.90;52.60;;;;;;5013871;28;19979;-75
2022/09/17 11:25:27;;;;;;;;;;;21.90;52.80;;;;;;5014597;28;19913;-75
2022/09/17 11:28:11;;;;;;;;;;;21.90;52.70;;;;;;5003399;28;20016;-75
2022/09/17 11:30:48;;;;;;;;;;;21.90;52.70;;;;;;5017281;28;19924;-74
2022/09/17 11:33:34;;;;;;;;;;;21.90;53.20;;;;;;5001557;28;19917;-74
2022/09/17 11:36:00;;;;;;;;;;;21.90;52.50;;;;;;4973772;28;19942;-74
2022/09/17 11:38:46;;;;;;;;;;;21.90;52.60;;;;;;5010618;28;19913;-74
2022/09/17 11:41:15;;;;;;;;;;;21.90;52.70;;;;;;5014071;28;19913;-75
2022/09/17 11:43:48;;;;;;;;;;;21.90;52.60;;;;;;5018805;28;20412;-75
2022/09/17 11:46:13;;;;;;;;;;;22.00;52.50;;;;;;5010628;28;19920;-75
2022/09/17 11:48:46;;;;;;;;;;;22.00;52.40;;;;;;5011913;28;21382;-75
2022/09/17 11:51:16;;;;;;;;;;;21.90;52.50;;;;;;5009523;28;19913;-75
2022/09/17 11:53:49;;;;;;;;;;;21.90;52.70;;;;;;5012706;28;20297;-75
2022/09/17 11:56:20;;;;;;;;;;;21.90;52.70;;;;;;5010725;28;20400;-75
2022/09/17 11:59:05;;;;;;;;;;;22.00;52.60;;;;;;5017830;28;20365;-76
2022/09/17 12:01:33;;;;;;;;;;;22.00;52.50;;;;;;5006602;28;20366;-74
2022/09/17 12:03:58;;;;;;;;;;;22.00;52.40;;;;;;5009175;28;19929;-75
2022/09/17 12:06:35;;;;;;;;;;;22.00;52.50;;;;;;5008517;28;19913;-75
2022/09/17 12:09:08;;;;;;;;;;;21.90;52.50;;;;;;5015312;28;20443;-76
2022/09/17 12:11:35;;;;;;;;;;;21.90;52.60;;;;;;5002664;28;19913;-75
2022/09/17 12:14:02;;;;;;;;;;;21.90;52.60;;;;;;5019393;28;20020;-75
2022/09/17 12:16:37;;;;;;;;;;;22.00;52.70;;;;;;5013215;28;20377;-76
2022/09/17 12:19:06;;;;;;;;;;;21.90;52.50;;;;;;5012291;28;19968;-75
2022/09/17 12:21:36;;;;;;;;;;;21.90;52.50;;;;;;5017354;28;19913;-76
2022/09/17 12:24:20;;;;;;;;;;;21.90;52.60;;;;;;4985528;28;19913;-76
2022/09/17 12:26:46;;;;;;;;;;;21.90;52.60;;;;;;4996487;28;19959;-76
2022/09/17 12:29:11;;;;;;;;;;;22.00;52.60;;;;;;5023273;28;20161;-75
2022/09/17 12:31:42;;;;;;;;;;;22.00;52.70;;;;;;5016329;28;20379;-76
2022/09/17 12:34:20;;;;;;;;;;;22.00;52.70;;;;;;5013832;28;19917;-76
2022/09/17 12:36:51;;;;;;;;;;;22.00;52.70;;;;;;5008082;28;19917;-74
2022/09/17 12:39:20;;;;;;;;;;;21.90;52.70;;;;;;5017252;28;19917;-75
2022/09/17 12:41:45;;;;;;;;;;;22.00;52.70;;;;;;5013539;28;20413;-75
2022/09/17 12:44:25;;;;;;;;;;;22.00;52.60;;;;;;5008260;28;19959;-76
2022/09/17 12:47:06;;;;;;;;;;;22.00;52.60;;;;;;5008417;28;20341;-76
2022/09/17 12:49:54;;;;;;;;;;;22.10;52.60;;;;;;5008708;28;20441;-76
2022/09/17 12:52:38;;;;;;;;;;;22.10;52.70;;;;;;4984770;28;19914;-76
2022/09/17 12:55:23;;;;;;;;;;;22.10;52.90;;;;;;5010288;28;19913;-76
2022/09/17 12:58:07;;;;;;;;;;;22.10;52.90;;;;;;5012990;28;19980;-76
2022/09/17 13:00:36;;;;;;;;;;;22.20;52.90;;;;;;5012515;28;19960;-76
2022/09/17 13:03:01;;;;;;;;;;;22.20;52.80;;;;;;5014567;28;20004;-77
2022/09/17 13:05:59;;;;;;;;;;;22.30;52.80;;;;;;5009571;28;19949;-76
2022/09/17 13:08:25;;;;;;;;;;;22.30;52.80;;;;;;5004997;28;20392;-77
2022/09/17 13:10:53;;;;;;;;;;;22.30;52.80;;;;;;5020545;28;19918;-76
2022/09/17 13:13:24;;;;;;;;;;;22.30;52.90;;;;;;5010897;28;19921;-76
2022/09/17 13:15:56;;;;;;;;;;;22.30;52.90;;;;;;5013529;28;19936;-75
2022/09/17 13:18:26;;;;;;;;;;;22.30;52.90;;;;;;5004378;28;19917;-76
2022/09/17 13:21:02;;;;;;;;;;;22.30;53.00;;;;;;5005080;28;19922;-76
2022/09/17 13:23:48;;;;;;;;;;;22.20;53.10;;;;;;5007900;28;20285;-76
2022/09/17 13:26:17;;;;;;;;;;;22.20;53.20;;;;;;5006773;28;19913;-76
2022/09/17 13:28:44;;;;;;;;;;;22.20;53.20;;;;;;5004914;28;20293;-76
2022/09/17 13:31:10;;;;;;;;;;;22.10;54.00;;;;;;4994023;28;19926;-75
2022/09/17 13:33:51;;;;;;;;;;;22.10;53.30;;;;;;5008820;28;19924;-76
2022/09/17 13:36:32;;;;;;;;;;;22.10;53.50;;;;;;5008435;28;20297;-75
2022/09/17 13:38:58;;;;;;;;;;;22.10;53.60;;;;;;5006496;28;19922;-76
2022/09/17 13:41:24;;;;;;;;;;;22.10;53.60;;;;;;5009612;28;19913;-75
2022/09/17 13:43:53;;;;;;;;;;;22.00;53.50;;;;;;4998787;28;20292;-75
2022/09/17 13:46:22;;;;;;;;;;;22.00;53.60;;;;;;5005113;28;19914;-75
2022/09/17 13:48:48;;;;;;;;;;;22.00;53.60;;;;;;5003515;28;19917;-77
2022/09/17 13:51:29;;;;;;;;;;;22.10;53.60;;;;;;5006950;28;19914;-74
2022/09/17 13:53:54;;;;;;;;;;;22.10;53.70;;;;;;4995786;28;19913;-75
2022/09/17 13:56:30;;;;;;;;;;;22.10;53.60;;;;;;5001105;28;19918;-75
2022/09/17 13:59:04;;;;;;;;;;;22.10;53.50;;;;;;4997665;28;19983;-76
2022/09/17 14:02:05;;;;;;;;;;;22.10;54.10;;;;;;4994271;28;19921;-75
2022/09/17 14:04:34;;;;;;;;;;;22.20;53.40;;;;;;4947485;28;20004;-73
2022/09/17 14:06:59;;;;;;;;;;;22.30;53.40;;;;;;4998064;28;19925;-75
2022/09/17 14:09:43;;;;;;;;;;;22.30;53.40;;;;;;5008011;28;20385;-74
2022/09/17 14:12:28;;;;;;;;;;;22.30;53.40;;;;;;4982856;28;19914;-75
2022/09/17 14:14:53;;;;;;;;;;;22.20;53.60;;;;;;5000485;28;19914;-75
2022/09/17 14:17:37;;;;;;;;;;;22.20;53.50;;;;;;4989022;28;19918;-74
2022/09/17 14:20:04;;;;;;;;;;;22.20;53.50;;;;;;5007642;28;19917;-74
2022/09/17 14:22:29;;;;;;;;;;;22.30;53.60;;;;;;5005208;28;19991;-74
2022/09/17 14:24:55;;;;;;;;;;;22.30;53.60;;;;;;5009940;28;20062;-75
2022/09/17 14:27:26;;;;;;;;;;;22.30;53.70;;;;;;5006558;28;19925;-74
2022/09/17 14:29:52;;;;;;;;;;;22.30;53.70;;;;;;5007325;28;20001;-74